KJHN

Stanton County Municipal Airport

Johnson, Kansas, USA
METAR KJHN 140415Z AUTO 28004KT 10SM CLR M03/M07 A3042 RMK AO2 T10311070
Observed Flight Rules
Nov-14 @ 04:15 UTC (33 minutes ago) Visual Flight Rules
Wind Visibility Clouds
280° at 4 knots 10 miles
  • Clear skies
Temperatures Readings
Current -3°C / 27°F
Dewpoint -7°C / 19°F
Humidity 74%
Altimeter 30.42" Hg
Pressure 1030 hPa
Elevation 1013
METAR KJHN 140415Z AUTO 28004KT 10SM CLR M03/M07 A3042 RMK AO2 T10311070
Observed Flight Rules
Nov-14 @ 04:15 UTC
(33 minutes ago)
VFR
Wind Visibility
280° at 4 knots 10 miles
Clouds
  • Clear skies
Temperature Dewpoint
-3°C / 27°F -7°C / 19°F
Humidity Altimeter Pressure
74% 30.42" Hg 1030 hPa